WARM SPRINGS (USACE) (WRS)

Elevation: 440' · RUSSIAN R basin · Operator: US Army Corps of Engineers

Provisional data, subject to change.
Query executed Monday at 1:05:28   clock

Select a sensor type for a plot of data.
Note: Reservoir Flows are daily averages.

Earlier

Date RES ELE    STORAGE    RES CHG    TOC STO    ABV TOC    OUTFLOW    INFLOW    PPT INC    TEMP MN    TEMP MX    EVP PAN   
 FEET   AF   AF   AF   AF   CFS   CFS   INCHES   DEG F   DEG F   INCHES  
06/26/2016 447.01 234512 -205 245000 -10488 87 6 0.00 11 41 0.29
06/27/2016 446.91 234256 -256 245000 -10744 88 -18 0.00 12 41 0.29
06/28/2016 446.83 234051 -205 245000 -10949 89 8 0.01 15 43 0.29
06/29/2016 446.74 233821 -230 245000 -11179 91 -5 0.00 10 35 0.25
06/30/2016 446.66 233616 -205 245000 -11384 92 11 0.00 10 38 0.26
07/01/2016 446.57 233387 -229 245000 -11613 93 -1 0.00 12 36 0.26
07/02/2016 446.49 233182 -205 245000 -11818 94 11 0.00 11 32 0.25
07/03/2016 446.40 232953 -229 245000 -12047 94 -2 0.00 9 31 0.24
07/04/2016 446.31 232723 -230 245000 -12277 94 -4 0.00 12 28 0.22
07/05/2016 446.23 232520 -203 245000 -12480 94 10 0.00 12 28 0.22
07/06/2016 446.15 232316 -204 245000 -12684 94 11 0.00 11 30 0.24
07/07/2016 446.06 232087 -229 245000 -12913 95 -2 0.00 10 30 0.23
07/08/2016 445.98 231883 -204 245000 -13117 94 12 0.01 12 35 0.25
07/09/2016 445.89 231655 -228 245000 -13345 94 -1 0.00 16 30 0.24
07/10/2016 445.80 231426 -229 245000 -13574 95 -0 0.00 12 31 0.25
07/11/2016 445.72 231223 -203 245000 -13777 95 14 0.04 16 34 0.26
07/12/2016 445.62 230970 -253 245000 -14030 97 -9 0.01 11 37 0.26
07/13/2016 445.54 230767 -203 245000 -14233 103 22 0.02 11 40 0.26
07/14/2016 445.43 230488 -279 245000 -14512 102 -17 0.00 12 40 0.26
07/15/2016 445.34 230260 -228 245000 -14740 101 5 0.00 11 34 0.23
07/16/2016 445.26 230058 -202 245000 -14942 101 18 0.00 12 31 0.23
07/17/2016 445.16 229805 -253 245000 -15195 102 -7 0.00 11 30 0.23
07/18/2016 445.08 229603 -202 245000 -15397 100 17 0.00 11 30 0.22
07/19/2016 445.00 229401 -202 245000 -15599 99 15 0.00 10 32 0.23
07/20/2016 444.89 229124 -277 245000 -15876 99 -21 0.01 10 35 0.24
07/21/2016 444.81 228922 -202 245000 -16078 101 18 0.00 9 33 0.23
07/22/2016 444.72 228695 -227 245000 -16305 108 14 0.04 9 41 0.26
07/23/2016 444.63 228469 -226 245000 -16531 110 19 0.03 13 42 0.27
07/24/2016 -- -- -- -- -- -- -- -- -- -- --
07/25/2016 -- -- -- -- -- -- -- -- -- -- --

Later | Latest

Warning! This data is preliminary and subject to revision.

Show WRS Map | Plot WRS Data | 1 Month WRS Data | Real-Time WRS Data | WRS Info